Akron, Michigan
Current Conditions -  °F | °C
As of 8:25 PM on Tuesday 25 Nov 2014 (Local Time) from KCFS Reporting Station
Overcast Overcast  
Wind Chill: 21°   Ceiling: 2400
Heat Index: 30°   Visibility: 10mi
Dew Point: 23°   Wind: 10mph
Humidity: 75%   Direction: 260°W
Pressure: 30.13"   Gusts: NA
Location:  43.57°N, 83.51°W
Report Text: KCFS 260125Z AUTO 26009KT 10SM OVC024 M01/M05 A3013 RMK AO2
Loading
Personal Weather Stations






























Interactive Weather Map New forecast layout! Learn more

10-Day Weather Forecast

Advertisements
Track Severe Weather on mobile